sensor_id;sensor_type;location;lat;lon;timestamp;pressure;altitude;pressure_sealevel;temperature;humidity
44309;BME280;30022;55.846;37.340;2023-02-11T00:01:38;46697.19;;;-143.51;100.00
44309;BME280;30022;55.846;37.340;2023-02-11T00:04:05;46724.84;;;-143.51;100.00
44309;BME280;30022;55.846;37.340;2023-02-11T00:06:32;46681.38;;;-143.51;100.00
44309;BME280;30022;55.846;37.340;2023-02-11T00:08:58;46716.94;;;-143.51;100.00
44309;BME280;30022;55.846;37.340;2023-02-11T00:11:24;46701.13;;;-143.51;100.00
44309;BME280;30022;55.846;37.340;2023-02-11T00:13:50;46703.13;;;-143.51;100.00
44309;BME280;30022;55.846;37.340;2023-02-11T00:16:17;46740.63;;;-143.51;100.00
44309;BME280;30022;55.846;37.340;2023-02-11T00:18:43;46728.78;;;-143.51;100.00
44309;BME280;30022;55.846;37.340;2023-02-11T00:21:09;46703.13;;;-143.51;100.00
44309;BME280;30022;55.846;37.340;2023-02-11T00:23:35;46728.78;;;-143.51;100.00
44309;BME280;30022;55.846;37.340;2023-02-11T00:26:01;46728.78;;;-143.51;100.00
44309;BME280;30022;55.846;37.340;2023-02-11T00:28:26;46742.59;;;-143.51;100.00
44309;BME280;30022;55.846;37.340;2023-02-11T00:30:53;46738.66;;;-143.51;100.00
44309;BME280;30022;55.846;37.340;2023-02-11T00:33:18;46720.88;;;-143.51;100.00
44309;BME280;30022;55.846;37.340;2023-02-11T00:35:44;46716.94;;;-143.51;100.00
44309;BME280;30022;55.846;37.340;2023-02-11T00:38:10;46736.69;;;-143.51;100.00
44309;BME280;30022;55.846;37.340;2023-02-11T00:40:36;46732.75;;;-143.51;100.00
44309;BME280;30022;55.846;37.340;2023-02-11T00:43:02;46720.88;;;-143.51;100.00
44309;BME280;30022;55.846;37.340;2023-02-11T00:45:28;46724.84;;;-143.51;100.00
44309;BME280;30022;55.846;37.340;2023-02-11T00:47:55;46734.72;;;-143.51;100.00
44309;BME280;30022;55.846;37.340;2023-02-11T00:50:20;46728.78;;;-143.51;100.00
44309;BME280;30022;55.846;37.340;2023-02-11T00:52:47;46730.75;;;-143.51;100.00
44309;BME280;30022;55.846;37.340;2023-02-11T00:55:12;46754.47;;;-143.51;100.00
44309;BME280;30022;55.846;37.340;2023-02-11T00:57:38;46744.59;;;-143.51;100.00
44309;BME280;30022;55.846;37.340;2023-02-11T01:00:04;46720.88;;;-143.51;100.00
44309;BME280;30022;55.846;37.340;2023-02-11T01:02:30;46718.91;;;-143.51;100.00
44309;BME280;30022;55.846;37.340;2023-02-11T01:04:56;46738.66;;;-143.51;100.00
44309;BME280;30022;55.846;37.340;2023-02-11T01:07:24;46705.09;;;-143.51;100.00
44309;BME280;30022;55.846;37.340;2023-02-11T01:09:50;46730.75;;;-143.51;100.00
44309;BME280;30022;55.846;37.340;2023-02-11T01:12:15;46728.78;;;-143.51;100.00
44309;BME280;30022;55.846;37.340;2023-02-11T01:14:41;46713.00;;;-143.51;100.00
44309;BME280;30022;55.846;37.340;2023-02-11T01:17:07;46705.09;;;-143.51;100.00
44309;BME280;30022;55.846;37.340;2023-02-11T01:19:32;46736.69;;;-143.51;100.00
44309;BME280;30022;55.846;37.340;2023-02-11T01:21:58;46734.72;;;-143.51;100.00
44309;BME280;30022;55.846;37.340;2023-02-11T01:24:24;46724.84;;;-143.51;100.00
44309;BME280;30022;55.846;37.340;2023-02-11T01:26:49;46730.75;;;-143.51;100.00
44309;BME280;30022;55.846;37.340;2023-02-11T01:29:15;46728.78;;;-143.51;100.00
44309;BME280;30022;55.846;37.340;2023-02-11T01:31:40;46738.66;;;-143.51;100.00
44309;BME280;30022;55.846;37.340;2023-02-11T01:34:06;46716.94;;;-143.51;100.00
44309;BME280;30022;55.846;37.340;2023-02-11T01:36:31;46714.97;;;-143.51;100.00
44309;BME280;30022;55.846;37.340;2023-02-11T01:38:59;46718.91;;;-143.51;100.00
44309;BME280;30022;55.846;37.340;2023-02-11T01:41:24;46730.75;;;-143.51;100.00
44309;BME280;30022;55.846;37.340;2023-02-11T01:43:50;46736.69;;;-143.51;100.00
44309;BME280;30022;55.846;37.340;2023-02-11T01:48:54;46740.63;;;-143.51;100.00
44309;BME280;30022;55.846;37.340;2023-02-11T01:51:26;46714.97;;;-143.51;100.00
44309;BME280;30022;55.846;37.340;2023-02-11T01:53:54;46718.91;;;-143.51;100.00
44309;BME280;30022;55.846;37.340;2023-02-11T01:56:40;46720.88;;;-143.51;100.00
44309;BME280;30022;55.846;37.340;2023-02-11T01:59:27;46716.94;;;-143.51;100.00
44309;BME280;30022;55.846;37.340;2023-02-11T02:01:59;46716.94;;;-143.51;100.00
44309;BME280;30022;55.846;37.340;2023-02-11T02:04:26;46711.00;;;-143.51;100.00
44309;BME280;30022;55.846;37.340;2023-02-11T02:07:01;46720.88;;;-143.51;100.00
44309;BME280;30022;55.846;37.340;2023-02-11T02:09:28;46701.13;;;-143.51;100.00
44309;BME280;30022;55.846;37.340;2023-02-11T02:11:57;46701.13;;;-143.51;100.00
44309;BME280;30022;55.846;37.340;2023-02-11T02:14:24;46709.03;;;-143.51;100.00
44309;BME280;30022;55.846;37.340;2023-02-11T02:16:51;46724.84;;;-143.51;100.00
44309;BME280;30022;55.846;37.340;2023-02-11T02:27:12;46713.00;;;-143.51;100.00
44309;BME280;30022;55.846;37.340;2023-02-11T02:29:55;46705.09;;;-143.51;100.00
44309;BME280;30022;55.846;37.340;2023-02-11T02:32:38;46740.63;;;-143.51;100.00
44309;BME280;30022;55.846;37.340;2023-02-11T02:37:37;46709.03;;;-143.51;100.00
44309;BME280;30022;55.846;37.340;2023-02-11T02:40:16;46720.88;;;-143.51;100.00
44309;BME280;30022;55.846;37.340;2023-02-11T02:42:44;46716.94;;;-143.51;100.00
44309;BME280;30022;55.846;37.340;2023-02-11T02:45:10;46705.09;;;-143.51;100.00
44309;BME280;30022;55.846;37.340;2023-02-11T02:47:37;46685.34;;;-143.51;100.00
44309;BME280;30022;55.846;37.340;2023-02-11T02:50:03;46713.00;;;-143.51;100.00
44309;BME280;30022;55.846;37.340;2023-02-11T02:52:33;46693.25;;;-143.51;100.00
44309;BME280;30022;55.846;37.340;2023-02-11T03:08:17;46726.81;;;-143.51;100.00
44309;BME280;30022;55.846;37.340;2023-02-11T03:10:48;46701.13;;;-143.51;100.00
44309;BME280;30022;55.846;37.340;2023-02-11T03:13:15;46716.94;;;-143.51;100.00
44309;BME280;30022;55.846;37.340;2023-02-11T03:15:43;46734.72;;;-143.51;100.00
44309;BME280;30022;55.846;37.340;2023-02-11T03:18:11;46697.19;;;-143.51;100.00
44309;BME280;30022;55.846;37.340;2023-02-11T03:20:38;46738.66;;;-143.51;100.00
44309;BME280;30022;55.846;37.340;2023-02-11T03:26:17;46730.75;;;-143.51;100.00
44309;BME280;30022;55.846;37.340;2023-02-11T03:31:34;46711.00;;;-143.51;100.00
44309;BME280;30022;55.846;37.340;2023-02-11T03:34:03;46740.63;;;-143.51;100.00
44309;BME280;30022;55.846;37.340;2023-02-11T03:36:33;46701.13;;;-143.51;100.00
44309;BME280;30022;55.846;37.340;2023-02-11T03:39:01;46703.13;;;-143.51;100.00
44309;BME280;30022;55.846;37.340;2023-02-11T03:41:28;46709.03;;;-143.51;100.00
44309;BME280;30022;55.846;37.340;2023-02-11T03:43:56;46716.94;;;-143.51;100.00
44309;BME280;30022;55.846;37.340;2023-02-11T03:46:24;46714.97;;;-143.51;100.00
44309;BME280;30022;55.846;37.340;2023-02-11T03:48:53;46689.28;;;-143.51;100.00
44309;BME280;30022;55.846;37.340;2023-02-11T03:51:20;46720.88;;;-143.51;100.00
44309;BME280;30022;55.846;37.340;2023-02-11T03:53:47;46720.88;;;-143.51;100.00
44309;BME280;30022;55.846;37.340;2023-02-11T03:56:19;46720.88;;;-143.51;100.00
44309;BME280;30022;55.846;37.340;2023-02-11T03:58:46;46709.03;;;-143.51;100.00
44309;BME280;30022;55.846;37.340;2023-02-11T04:01:12;46703.13;;;-143.51;100.00
44309;BME280;30022;55.846;37.340;2023-02-11T04:03:38;46697.19;;;-143.51;100.00
44309;BME280;30022;55.846;37.340;2023-02-11T04:06:04;46693.25;;;-143.51;100.00
44309;BME280;30022;55.846;37.340;2023-02-11T04:08:29;46701.13;;;-143.51;100.00
44309;BME280;30022;55.846;37.340;2023-02-11T04:10:56;46713.00;;;-143.51;100.00
44309;BME280;30022;55.846;37.340;2023-02-11T04:13:21;46732.75;;;-143.51;100.00
44309;BME280;30022;55.846;37.340;2023-02-11T04:15:47;46711.00;;;-143.51;100.00
44309;BME280;30022;55.846;37.340;2023-02-11T04:18:12;46711.00;;;-143.51;100.00
44309;BME280;30022;55.846;37.340;2023-02-11T04:20:38;46705.09;;;-143.51;100.00
44309;BME280;30022;55.846;37.340;2023-02-11T04:23:04;46718.91;;;-143.51;100.00
44309;BME280;30022;55.846;37.340;2023-02-11T04:25:29;46693.25;;;-143.51;100.00
44309;BME280;30022;55.846;37.340;2023-02-11T04:27:55;46701.13;;;-143.51;100.00
44309;BME280;30022;55.846;37.340;2023-02-11T04:30:20;46713.00;;;-143.51;100.00
44309;BME280;30022;55.846;37.340;2023-02-11T04:32:46;46728.78;;;-143.51;100.00
44309;BME280;30022;55.846;37.340;2023-02-11T04:35:12;46720.88;;;-143.51;100.00
44309;BME280;30022;55.846;37.340;2023-02-11T04:37:37;46711.00;;;-143.51;100.00
44309;BME280;30022;55.846;37.340;2023-02-11T04:40:03;46716.94;;;-143.51;100.00
44309;BME280;30022;55.846;37.340;2023-02-11T04:42:29;46726.81;;;-143.51;100.00
44309;BME280;30022;55.846;37.340;2023-02-11T04:44:55;46709.03;;;-143.51;100.00
44309;BME280;30022;55.846;37.340;2023-02-11T04:47:20;46742.59;;;-143.51;100.00
44309;BME280;30022;55.846;37.340;2023-02-11T04:49:46;46714.97;;;-143.51;100.00
44309;BME280;30022;55.846;37.340;2023-02-11T04:52:11;46716.94;;;-143.51;100.00
44309;BME280;30022;55.846;37.340;2023-02-11T04:54:37;46718.91;;;-143.51;100.00
44309;BME280;30022;55.846;37.340;2023-02-11T04:57:03;46720.88;;;-143.51;100.00
44309;BME280;30022;55.846;37.340;2023-02-11T04:59:28;46716.94;;;-143.51;100.00
44309;BME280;30022;55.846;37.340;2023-02-11T05:01:54;46699.16;;;-143.51;100.00
44309;BME280;30022;55.846;37.340;2023-02-11T05:04:20;46697.19;;;-143.51;100.00
44309;BME280;30022;55.846;37.340;2023-02-11T05:06:45;46703.13;;;-143.51;100.00
44309;BME280;30022;55.846;37.340;2023-02-11T05:09:11;46720.88;;;-143.51;100.00
44309;BME280;30022;55.846;37.340;2023-02-11T05:11:37;46699.16;;;-143.51;100.00
44309;BME280;30022;55.846;37.340;2023-02-11T05:14:04;46703.13;;;-143.51;100.00
44309;BME280;30022;55.846;37.340;2023-02-11T05:16:29;46687.31;;;-143.51;100.00
44309;BME280;30022;55.846;37.340;2023-02-11T05:18:55;46713.00;;;-143.51;100.00
44309;BME280;30022;55.846;37.340;2023-02-11T05:21:21;46705.09;;;-143.51;100.00
44309;BME280;30022;55.846;37.340;2023-02-11T05:23:46;46697.19;;;-143.51;100.00
44309;BME280;30022;55.846;37.340;2023-02-11T05:26:12;46724.84;;;-143.51;100.00
44309;BME280;30022;55.846;37.340;2023-02-11T05:28:38;46709.03;;;-143.51;100.00
44309;BME280;30022;55.846;37.340;2023-02-11T05:31:04;46724.84;;;-143.51;100.00
44309;BME280;30022;55.846;37.340;2023-02-11T05:33:30;46716.94;;;-143.51;100.00
44309;BME280;30022;55.846;37.340;2023-02-11T05:35:59;46714.97;;;-143.51;100.00
44309;BME280;30022;55.846;37.340;2023-02-11T05:38:25;46718.91;;;-143.51;100.00
44309;BME280;30022;55.846;37.340;2023-02-11T05:40:51;46701.13;;;-143.51;100.00
44309;BME280;30022;55.846;37.340;2023-02-11T05:43:16;46713.00;;;-143.51;100.00
44309;BME280;30022;55.846;37.340;2023-02-11T05:45:42;46701.13;;;-143.51;100.00
44309;BME280;30022;55.846;37.340;2023-02-11T05:48:07;46685.34;;;-143.51;100.00
44309;BME280;30022;55.846;37.340;2023-02-11T05:50:33;46699.16;;;-143.51;100.00
44309;BME280;30022;55.846;37.340;2023-02-11T05:52:58;46689.28;;;-143.51;100.00
44309;BME280;30022;55.846;37.340;2023-02-11T05:55:24;46709.03;;;-143.51;100.00
44309;BME280;30022;55.846;37.340;2023-02-11T05:57:50;46699.16;;;-143.51;100.00
44309;BME280;30022;55.846;37.340;2023-02-11T06:00:15;46705.09;;;-143.51;100.00
44309;BME280;30022;55.846;37.340;2023-02-11T06:02:41;46697.19;;;-143.51;100.00
44309;BME280;30022;55.846;37.340;2023-02-11T06:05:08;46728.78;;;-143.51;100.00
44309;BME280;30022;55.846;37.340;2023-02-11T06:07:33;46681.38;;;-143.51;100.00
44309;BME280;30022;55.846;37.340;2023-02-11T06:09:59;46695.22;;;-143.51;100.00
44309;BME280;30022;55.846;37.340;2023-02-11T06:12:25;46716.94;;;-143.51;100.00
44309;BME280;30022;55.846;37.340;2023-02-11T06:14:51;46701.13;;;-143.51;100.00
44309;BME280;30022;55.846;37.340;2023-02-11T06:17:17;46685.34;;;-143.51;100.00
44309;BME280;30022;55.846;37.340;2023-02-11T06:19:43;46709.03;;;-143.51;100.00
44309;BME280;30022;55.846;37.340;2023-02-11T06:22:08;46677.44;;;-143.51;100.00
44309;BME280;30022;55.846;37.340;2023-02-11T06:24:34;46724.84;;;-143.51;100.00
44309;BME280;30022;55.846;37.340;2023-02-11T06:26:59;46691.25;;;-143.51;100.00
44309;BME280;30022;55.846;37.340;2023-02-11T06:29:25;46699.16;;;-143.51;100.00
44309;BME280;30022;55.846;37.340;2023-02-11T06:31:50;46713.00;;;-143.51;100.00
44309;BME280;30022;55.846;37.340;2023-02-11T06:34:16;46736.69;;;-143.51;100.00
44309;BME280;30022;55.846;37.340;2023-02-11T06:36:42;46693.25;;;-143.51;100.00
44309;BME280;30022;55.846;37.340;2023-02-11T06:39:08;46701.13;;;-143.51;100.00
44309;BME280;30022;55.846;37.340;2023-02-11T06:41:34;46681.38;;;-143.51;100.00
44309;BME280;30022;55.846;37.340;2023-02-11T06:44:00;46713.00;;;-143.51;100.00
44309;BME280;30022;55.846;37.340;2023-02-11T06:46:25;46693.25;;;-143.51;100.00
44309;BME280;30022;55.846;37.340;2023-02-11T06:48:51;46726.81;;;-143.51;100.00
44309;BME280;30022;55.846;37.340;2023-02-11T06:51:16;46693.25;;;-143.51;100.00
44309;BME280;30022;55.846;37.340;2023-02-11T06:53:43;46685.34;;;-143.51;100.00
44309;BME280;30022;55.846;37.340;2023-02-11T06:56:10;46697.19;;;-143.51;100.00
44309;BME280;30022;55.846;37.340;2023-02-11T06:58:36;46683.38;;;-143.51;100.00
44309;BME280;30022;55.846;37.340;2023-02-11T07:01:09;46701.13;;;-143.51;100.00
44309;BME280;30022;55.846;37.340;2023-02-11T07:03:35;46693.25;;;-143.51;100.00
44309;BME280;30022;55.846;37.340;2023-02-11T07:06:02;46677.44;;;-143.51;100.00
44309;BME280;30022;55.846;37.340;2023-02-11T07:08:27;46699.16;;;-143.51;100.00
44309;BME280;30022;55.846;37.340;2023-02-11T07:10:53;46699.16;;;-143.51;100.00
44309;BME280;30022;55.846;37.340;2023-02-11T07:13:18;46709.03;;;-143.51;100.00
44309;BME280;30022;55.846;37.340;2023-02-11T07:15:44;46701.13;;;-143.51;100.00
44309;BME280;30022;55.846;37.340;2023-02-11T07:18:10;46693.25;;;-143.51;100.00
44309;BME280;30022;55.846;37.340;2023-02-11T07:20:36;46697.19;;;-143.51;100.00
44309;BME280;30022;55.846;37.340;2023-02-11T07:23:01;46705.09;;;-143.51;100.00
44309;BME280;30022;55.846;37.340;2023-02-11T07:25:27;46711.00;;;-143.51;100.00
44309;BME280;30022;55.846;37.340;2023-02-11T07:27:52;46720.88;;;-143.51;100.00
44309;BME280;30022;55.846;37.340;2023-02-11T07:30:18;46659.66;;;-143.51;100.00
44309;BME280;30022;55.846;37.340;2023-02-11T07:32:44;46693.25;;;-143.51;100.00
44309;BME280;30022;55.846;37.340;2023-02-11T07:35:09;46669.53;;;-143.51;100.00
44309;BME280;30022;55.846;37.340;2023-02-11T07:37:35;46691.25;;;-143.51;100.00
44309;BME280;30022;55.846;37.340;2023-02-11T07:40:01;46695.22;;;-143.51;100.00
44309;BME280;30022;55.846;37.340;2023-02-11T07:42:26;46693.25;;;-143.51;100.00
44309;BME280;30022;55.846;37.340;2023-02-11T07:44:52;46711.00;;;-143.51;100.00
44309;BME280;30022;55.846;37.340;2023-02-11T07:47:17;46693.25;;;-143.51;100.00
44309;BME280;30022;55.846;37.340;2023-02-11T07:49:44;46671.50;;;-143.51;100.00
44309;BME280;30022;55.846;37.340;2023-02-11T07:52:09;46693.25;;;-143.51;100.00
44309;BME280;30022;55.846;37.340;2023-02-11T07:54:35;46689.28;;;-143.51;100.00
44309;BME280;30022;55.846;37.340;2023-02-11T07:57:00;46720.88;;;-143.51;100.00
44309;BME280;30022;55.846;37.340;2023-02-11T07:59:26;46714.97;;;-143.51;100.00
44309;BME280;30022;55.846;37.340;2023-02-11T08:01:52;46691.25;;;-143.51;100.00
44309;BME280;30022;55.846;37.340;2023-02-11T08:04:17;46673.50;;;-143.51;100.00
44309;BME280;30022;55.846;37.340;2023-02-11T08:06:43;46697.19;;;-143.51;100.00
44309;BME280;30022;55.846;37.340;2023-02-11T08:09:10;46705.09;;;-143.51;100.00
44309;BME280;30022;55.846;37.340;2023-02-11T08:11:38;46685.34;;;-143.51;100.00
44309;BME280;30022;55.846;37.340;2023-02-11T08:14:03;46677.44;;;-143.51;100.00
44309;BME280;30022;55.846;37.340;2023-02-11T08:16:33;46699.16;;;-143.51;100.00
44309;BME280;30022;55.846;37.340;2023-02-11T08:18:59;46683.38;;;-143.51;100.00
44309;BME280;30022;55.846;37.340;2023-02-11T08:21:25;46671.50;;;-143.51;100.00
44309;BME280;30022;55.846;37.340;2023-02-11T08:23:51;46683.38;;;-143.51;100.00
44309;BME280;30022;55.846;37.340;2023-02-11T08:26:18;46677.44;;;-143.51;100.00
44309;BME280;30022;55.846;37.340;2023-02-11T08:28:44;46701.13;;;-143.51;100.00
44309;BME280;30022;55.846;37.340;2023-02-11T08:31:12;46659.66;;;-143.51;100.00
44309;BME280;30022;55.846;37.340;2023-02-11T08:33:38;46689.28;;;-143.51;100.00
44309;BME280;30022;55.846;37.340;2023-02-11T08:36:12;46709.03;;;-143.51;100.00
44309;BME280;30022;55.846;37.340;2023-02-11T08:38:38;46671.50;;;-143.51;100.00
44309;BME280;30022;55.846;37.340;2023-02-11T08:41:04;46685.34;;;-143.51;100.00
44309;BME280;30022;55.846;37.340;2023-02-11T08:43:29;46695.22;;;-143.51;100.00
44309;BME280;30022;55.846;37.340;2023-02-11T08:45:55;46677.44;;;-143.51;100.00
44309;BME280;30022;55.846;37.340;2023-02-11T08:48:21;46677.44;;;-143.51;100.00
44309;BME280;30022;55.846;37.340;2023-02-11T08:50:46;46691.25;;;-143.51;100.00
44309;BME280;30022;55.846;37.340;2023-02-11T08:53:12;46673.50;;;-143.51;100.00
44309;BME280;30022;55.846;37.340;2023-02-11T08:55:37;46685.34;;;-143.51;100.00
44309;BME280;30022;55.846;37.340;2023-02-11T08:58:03;46647.81;;;-143.51;100.00
44309;BME280;30022;55.846;37.340;2023-02-11T09:00:29;46667.56;;;-143.51;100.00
44309;BME280;30022;55.846;37.340;2023-02-11T09:02:54;46667.56;;;-143.51;100.00
44309;BME280;30022;55.846;37.340;2023-02-11T09:05:20;46699.16;;;-143.51;100.00
44309;BME280;30022;55.846;37.340;2023-02-11T09:07:46;46695.22;;;-143.51;100.00
44309;BME280;30022;55.846;37.340;2023-02-11T09:10:14;46685.34;;;-143.51;100.00
44309;BME280;30022;55.846;37.340;2023-02-11T09:12:40;46687.31;;;-143.51;100.00
44309;BME280;30022;55.846;37.340;2023-02-11T09:15:05;46687.31;;;-143.51;100.00
44309;BME280;30022;55.846;37.340;2023-02-11T09:17:31;46689.28;;;-143.51;100.00
44309;BME280;30022;55.846;37.340;2023-02-11T09:19:57;46695.22;;;-143.51;100.00
44309;BME280;30022;55.846;37.340;2023-02-11T09:22:22;46689.28;;;-143.51;100.00
44309;BME280;30022;55.846;37.340;2023-02-11T09:24:48;46677.44;;;-143.51;100.00
44309;BME280;30022;55.846;37.340;2023-02-11T09:27:13;46685.34;;;-143.51;100.00
44309;BME280;30022;55.846;37.340;2023-02-11T09:29:39;46675.47;;;-143.51;100.00
44309;BME280;30022;55.846;37.340;2023-02-11T09:32:05;46683.38;;;-143.51;100.00
44309;BME280;30022;55.846;37.340;2023-02-11T09:34:30;46661.63;;;-143.51;100.00
44309;BME280;30022;55.846;37.340;2023-02-11T09:36:56;46695.22;;;-143.51;100.00
44309;BME280;30022;55.846;37.340;2023-02-11T09:39:21;46709.03;;;-143.51;100.00
44309;BME280;30022;55.846;37.340;2023-02-11T09:44:17;46713.00;;;-143.51;100.00
44309;BME280;30022;55.846;37.340;2023-02-11T09:46:44;46673.50;;;-143.51;100.00
44309;BME280;30022;55.846;37.340;2023-02-11T09:49:18;46673.50;;;-143.51;100.00
44309;BME280;30022;55.846;37.340;2023-02-11T09:52:03;46689.28;;;-143.51;100.00
44309;BME280;30022;55.846;37.340;2023-02-11T09:56:55;46691.25;;;-143.51;100.00
44309;BME280;30022;55.846;37.340;2023-02-11T09:59:21;46681.38;;;-143.51;100.00
44309;BME280;30022;55.846;37.340;2023-02-11T10:01:49;46693.25;;;-143.51;100.00
44309;BME280;30022;55.846;37.340;2023-02-11T10:04:23;46681.38;;;-143.51;100.00
44309;BME280;30022;55.846;37.340;2023-02-11T10:06:55;46697.19;;;-143.51;100.00
44309;BME280;30022;55.846;37.340;2023-02-11T10:09:34;46691.25;;;-143.51;100.00
44309;BME280;30022;55.846;37.340;2023-02-11T10:15:16;46685.34;;;-143.51;100.00
44309;BME280;30022;55.846;37.340;2023-02-11T10:20:30;46705.09;;;-143.51;100.00
44309;BME280;30022;55.846;37.340;2023-02-11T10:22:58;46695.22;;;-143.51;100.00
44309;BME280;30022;55.846;37.340;2023-02-11T10:25:44;46699.16;;;-143.51;100.00
44309;BME280;30022;55.846;37.340;2023-02-11T10:28:18;46685.34;;;-143.51;100.00
44309;BME280;30022;55.846;37.340;2023-02-11T10:30:48;46705.09;;;-143.51;100.00
44309;BME280;30022;55.846;37.340;2023-02-11T10:33:27;46709.03;;;-143.51;100.00
44309;BME280;30022;55.846;37.340;2023-02-11T10:35:54;46681.38;;;-143.51;100.00
44309;BME280;30022;55.846;37.340;2023-02-11T10:38:20;46677.44;;;-143.51;100.00
44309;BME280;30022;55.846;37.340;2023-02-11T10:40:45;46705.09;;;-143.51;100.00
44309;BME280;30022;55.846;37.340;2023-02-11T10:43:12;46705.09;;;-143.51;100.00
44309;BME280;30022;55.846;37.340;2023-02-11T10:45:41;46677.44;;;-143.51;100.00
44309;BME280;30022;55.846;37.340;2023-02-11T10:51:05;46687.31;;;-143.51;100.00
44309;BME280;30022;55.846;37.340;2023-02-11T10:53:31;46699.16;;;-143.51;100.00
44309;BME280;30022;55.846;37.340;2023-02-11T10:55:58;46695.22;;;-143.51;100.00
44309;BME280;30022;55.846;37.340;2023-02-11T10:58:30;46720.88;;;-143.51;100.00
44309;BME280;30022;55.846;37.340;2023-02-11T11:00:57;46661.63;;;-143.51;100.00
44309;BME280;30022;55.846;37.340;2023-02-11T11:03:24;46699.16;;;-143.51;100.00
44309;BME280;30022;55.846;37.340;2023-02-11T11:05:51;46679.41;;;-143.51;100.00
44309;BME280;30022;55.846;37.340;2023-02-11T11:08:17;46691.25;;;-143.51;100.00
44309;BME280;30022;55.846;37.340;2023-02-11T11:10:47;46695.22;;;-143.51;100.00
44309;BME280;30022;55.846;37.340;2023-02-11T11:13:30;46713.00;;;-143.51;100.00
44309;BME280;30022;55.846;37.340;2023-02-11T11:18:37;46657.69;;;-143.51;100.00
44309;BME280;30022;55.846;37.340;2023-02-11T11:23:37;46681.38;;;-143.51;100.00
44309;BME280;30022;55.846;37.340;2023-02-11T11:26:04;46671.50;;;-143.51;100.00
44309;BME280;30022;55.846;37.340;2023-02-11T11:28:32;46687.31;;;-143.51;100.00
44309;BME280;30022;55.846;37.340;2023-02-11T11:31:03;46697.19;;;-143.51;100.00
44309;BME280;30022;55.846;37.340;2023-02-11T11:33:33;46681.38;;;-143.51;100.00
44309;BME280;30022;55.846;37.340;2023-02-11T11:36:01;46693.25;;;-143.51;100.00
44309;BME280;30022;55.846;37.340;2023-02-11T11:38:27;46679.41;;;-143.51;100.00
44309;BME280;30022;55.846;37.340;2023-02-11T11:41:16;46671.50;;;-143.51;100.00
44309;BME280;30022;55.846;37.340;2023-02-11T11:43:46;46673.50;;;-143.51;100.00
44309;BME280;30022;55.846;37.340;2023-02-11T11:46:21;46681.38;;;-143.51;100.00
44309;BME280;30022;55.846;37.340;2023-02-11T11:48:47;46685.34;;;-143.51;100.00
44309;BME280;30022;55.846;37.340;2023-02-11T11:51:14;46679.41;;;-143.51;100.00
44309;BME280;30022;55.846;37.340;2023-02-11T11:58:43;46669.53;;;-143.51;100.00
44309;BME280;30022;55.846;37.340;2023-02-11T12:06:17;46669.53;;;-143.51;100.00
44309;BME280;30022;55.846;37.340;2023-02-11T12:08:59;46677.44;;;-143.51;100.00
44309;BME280;30022;55.846;37.340;2023-02-11T12:14:16;46681.38;;;-143.51;100.00
44309;BME280;30022;55.846;37.340;2023-02-11T12:19:15;46691.25;;;-143.51;100.00
44309;BME280;30022;55.846;37.340;2023-02-11T12:22:04;46669.53;;;-143.51;100.00
44309;BME280;30022;55.846;37.340;2023-02-11T12:34:54;46657.69;;;-143.51;100.00
44309;BME280;30022;55.846;37.340;2023-02-11T12:53:46;46687.31;;;-143.51;100.00
44309;BME280;30022;55.846;37.340;2023-02-11T12:55:41;46691.25;;;-143.51;100.00
44309;BME280;30022;55.846;37.340;2023-02-11T12:58:17;46687.31;;;-143.51;100.00
44309;BME280;30022;55.846;37.340;2023-02-11T13:00:45;46693.25;;;-143.51;100.00
44309;BME280;30022;55.846;37.340;2023-02-11T13:03:14;46687.31;;;-143.51;100.00
44309;BME280;30022;55.846;37.340;2023-02-11T13:08:15;46681.38;;;-143.51;100.00
44309;BME280;30022;55.846;37.340;2023-02-11T13:10:44;46671.50;;;-143.51;100.00
44309;BME280;30022;55.846;37.340;2023-02-11T13:13:18;46681.38;;;-143.51;100.00
44309;BME280;30022;55.846;37.340;2023-02-11T13:15:47;46716.94;;;-143.51;100.00
44309;BME280;30022;55.846;37.340;2023-02-11T13:20:44;46689.28;;;-143.51;100.00
44309;BME280;30022;55.846;37.340;2023-02-11T13:25:51;46738.66;;;-143.51;100.00
44309;BME280;30022;55.846;37.340;2023-02-11T13:30:52;46744.59;;;-143.51;100.00
44309;BME280;30022;55.846;37.340;2023-02-11T13:33:30;46772.22;;;-143.51;100.00
44309;BME280;30022;55.846;37.340;2023-02-11T13:38:26;46766.31;;;-143.51;100.00
44309;BME280;30022;55.846;37.340;2023-02-11T13:43:28;46811.72;;;-143.51;100.00
44309;BME280;30022;55.846;37.340;2023-02-11T13:45:58;46861.09;;;-143.51;100.00
44309;BME280;30022;55.846;37.340;2023-02-11T13:48:28;46876.91;;;-143.51;100.00
44309;BME280;30022;55.846;37.340;2023-02-11T13:51:10;46882.84;;;-143.51;100.00
44309;BME280;30022;55.846;37.340;2023-02-11T13:53:55;46922.34;;;-143.51;100.00
44309;BME280;30022;55.846;37.340;2023-02-11T13:56:23;46979.59;;;-143.51;100.00
44309;BME280;30022;55.846;37.340;2023-02-11T13:58:52;47060.59;;;-143.51;100.00
44309;BME280;30022;55.846;37.340;2023-02-11T14:04:21;47125.75;;;-143.51;100.00
44309;BME280;30022;55.846;37.340;2023-02-11T14:07:25;47192.91;;;-143.51;100.00
44309;BME280;30022;55.846;37.340;2023-02-11T14:16:05;47503.03;;;-143.51;100.00
44309;BME280;30022;55.846;37.340;2023-02-11T14:21:05;47712.41;;;-143.51;100.00
44309;BME280;30022;55.846;37.340;2023-02-11T14:23:34;47686.72;;;-143.51;100.00